Time;durP1;ratioP1;P1;durP2;ratioP2;P2;SDS_P1;SDS_P2;PMS_P1;PMS_P2;Temp;Humidity;BMP_temperature;BMP_pressure;BME280_temperature;BME280_humidity;BME280_pressure;Samples;Min_cycle;Max_cycle;Signal;HPM_P1;HPM_P2
2022/12/23 00:00:00;;;;;;;;;;;20.40;65.70;;;;;;1554181;75;802;-75
2022/12/23 00:02:02;;;;;;;;;;;20.50;65.80;;;;;;1568700;75;686;-76
2022/12/23 00:04:04;;;;;;;;;;;20.40;65.60;;;;;;1549423;75;1315;-75
2022/12/23 00:06:09;;;;;;;;;;;20.40;65.70;;;;;;1558683;75;677;-74
2022/12/23 00:08:11;;;;;;;;;;;20.50;65.70;;;;;;1565228;75;1128;-73
2022/12/23 00:10:13;;;;;;;;;;;20.40;65.70;;;;;;1556319;75;686;-75
2022/12/23 00:16:54;;;;;;;;;;;20.50;65.70;;;;;;1562012;75;1137;-75
2022/12/23 00:18:56;;;;;;;;;;;20.50;65.60;;;;;;1564098;75;1932;-75
2022/12/23 00:21:01;;;;;;;;;;;20.40;65.70;;;;;;1557315;75;764;-75
2022/12/23 00:23:06;;;;;;;;;;;20.40;65.60;;;;;;1563894;75;729;-76
2022/12/23 00:25:08;;;;;;;;;;;20.50;65.70;;;;;;1550321;75;683;-75
2022/12/23 00:27:09;;;;;;;;;;;20.50;65.70;;;;;;1557460;75;1173;-76
2022/12/23 00:29:11;;;;;;;;;;;20.50;65.80;;;;;;1561510;75;668;-76
2022/12/23 00:31:16;;;;;;;;;;;20.40;65.60;;;;;;1569954;75;715;-75
2022/12/23 00:33:19;;;;;;;;;;;20.40;65.50;;;;;;1568329;75;1576;-76
2022/12/23 00:35:21;;;;;;;;;;;20.40;65.50;;;;;;1563162;75;773;-76
2022/12/23 00:37:22;;;;;;;;;;;20.40;65.50;;;;;;1560848;75;1154;-75
2022/12/23 00:44:04;;;;;;;;;;;20.40;65.50;;;;;;1559975;75;1654;-76
2022/12/23 00:46:06;;;;;;;;;;;20.40;65.60;;;;;;1565618;75;775;-74
2022/12/23 00:50:27;;;;;;;;;;;20.40;65.60;;;;;;1565495;75;1622;-75
2022/12/23 00:52:29;;;;;;;;;;;20.40;65.50;;;;;;1569866;75;660;-76
2022/12/23 00:54:31;;;;;;;;;;;20.40;65.50;;;;;;1556044;75;675;-76
2022/12/23 00:56:33;;;;;;;;;;;20.40;65.60;;;;;;1556851;75;1157;-76
2022/12/23 00:58:35;;;;;;;;;;;20.40;65.60;;;;;;1557814;75;1938;-76
2022/12/23 01:07:36;;;;;;;;;;;20.40;65.80;;;;;;1550614;75;1639;-76
2022/12/23 01:09:38;;;;;;;;;;;20.40;65.70;;;;;;1559069;75;663;-76
2022/12/23 01:11:40;;;;;;;;;;;20.40;65.60;;;;;;1562984;75;672;-76
2022/12/23 01:13:42;;;;;;;;;;;20.40;65.60;;;;;;1554523;75;683;-77
2022/12/23 01:15:44;;;;;;;;;;;20.40;65.80;;;;;;1566394;75;1318;-76
2022/12/23 01:17:46;;;;;;;;;;;20.40;65.60;;;;;;1564259;75;1188;-75
2022/12/23 01:19:48;;;;;;;;;;;20.40;65.70;;;;;;1568333;75;1934;-72
2022/12/23 01:21:49;;;;;;;;;;;20.40;65.80;;;;;;1568203;75;668;-73
2022/12/23 01:23:51;;;;;;;;;;;20.40;65.70;;;;;;1570442;75;716;-72
2022/12/23 01:25:58;;;;;;;;;;;20.40;65.60;;;;;;1571088;75;687;-72
2022/12/23 01:28:00;;;;;;;;;;;20.40;65.60;;;;;;1571082;75;1824;-72
2022/12/23 01:30:01;;;;;;;;;;;20.40;65.50;;;;;;1569485;75;1338;-71
2022/12/23 01:32:03;;;;;;;;;;;20.40;65.50;;;;;;1570169;75;727;-71
2022/12/23 01:34:05;;;;;;;;;;;20.40;65.50;;;;;;1565674;75;711;-72
2022/12/23 01:36:08;;;;;;;;;;;20.40;65.50;;;;;;1573952;75;748;-72
2022/12/23 01:38:10;;;;;;;;;;;20.40;65.40;;;;;;1572677;75;1934;-72
2022/12/23 01:40:12;;;;;;;;;;;20.40;65.40;;;;;;1571534;75;697;-73
2022/12/23 01:44:47;;;;;;;;;;;20.40;65.30;;;;;;1569108;75;1638;-74
2022/12/23 01:46:49;;;;;;;;;;;20.40;65.30;;;;;;1569544;75;1148;-74
2022/12/23 01:48:51;;;;;;;;;;;20.40;65.30;;;;;;1569006;75;660;-74
2022/12/23 01:50:54;;;;;;;;;;;20.40;65.20;;;;;;1569230;75;710;-74
2022/12/23 01:53:04;;;;;;;;;;;20.40;65.20;;;;;;1568520;75;744;-74
2022/12/23 01:55:06;;;;;;;;;;;20.40;65.20;;;;;;1573937;75;748;-73
2022/12/23 01:57:08;;;;;;;;;;;20.50;65.30;;;;;;1570206;75;1667;-73
2022/12/23 02:03:40;;;;;;;;;;;20.40;65.20;;;;;;1569769;75;1948;-74
2022/12/23 02:03:41;;;;;;;;;;;20.40;65.10;;;;;;1568485;75;1627;-74
2022/12/23 02:05:44;;;;;;;;;;;20.40;65.10;;;;;;1570284;75;653;-74
2022/12/23 02:10:06;;;;;;;;;;;20.40;65.10;;;;;;1571004;75;1608;-74
2022/12/23 02:12:26;;;;;;;;;;;20.40;65.10;;;;;;1569713;75;1389;-74
2022/12/23 02:16:57;;;;;;;;;;;20.40;65.10;;;;;;1564760;75;1978;-74
2022/12/23 02:19:01;;;;;;;;;;;20.40;65.10;;;;;;1572885;75;1951;-74
2022/12/23 02:21:07;;;;;;;;;;;20.40;65.10;;;;;;1573575;75;1865;-74
2022/12/23 02:23:29;;;;;;;;;;;20.40;65.10;;;;;;1573900;75;704;-74
2022/12/23 02:25:32;;;;;;;;;;;20.40;65.10;;;;;;1574195;75;1746;-74
2022/12/23 02:27:36;;;;;;;;;;;20.40;65.10;;;;;;1574328;75;1167;-73
2022/12/23 02:29:39;;;;;;;;;;;20.40;65.10;;;;;;1573880;75;941;-74
2022/12/23 02:31:55;;;;;;;;;;;20.40;65.20;;;;;;1572137;75;1721;-74
2022/12/23 02:34:10;;;;;;;;;;;20.40;65.20;;;;;;1570785;75;1899;-74
2022/12/23 02:36:29;;;;;;;;;;;20.40;65.20;;;;;;1569962;75;618;-74
2022/12/23 02:38:35;;;;;;;;;;;20.40;65.20;;;;;;1570478;75;1934;-75
2022/12/23 02:40:45;;;;;;;;;;;20.40;65.30;;;;;;1571264;75;1885;-75
2022/12/23 02:42:47;;;;;;;;;;;20.30;65.30;;;;;;1572211;75;689;-75
2022/12/23 02:44:51;;;;;;;;;;;20.40;65.30;;;;;;1569419;75;662;-76
2022/12/23 02:46:54;;;;;;;;;;;20.40;65.30;;;;;;1572030;75;1838;-74
2022/12/23 02:48:57;;;;;;;;;;;20.40;65.40;;;;;;1566314;75;1373;-74
2022/12/23 02:50:59;;;;;;;;;;;20.30;65.40;;;;;;1572461;75;714;-75
2022/12/23 02:53:01;;;;;;;;;;;20.30;65.50;;;;;;1573826;75;1338;-74
2022/12/23 02:55:05;;;;;;;;;;;20.30;65.60;;;;;;1573772;75;723;-74
2022/12/23 02:57:07;;;;;;;;;;;20.30;65.60;;;;;;1572501;75;1517;-75
2022/12/23 02:59:13;;;;;;;;;;;20.30;65.60;;;;;;1569107;75;1933;-75
2022/12/23 03:01:14;;;;;;;;;;;20.30;65.70;;;;;;1559011;75;892;-75
2022/12/23 03:03:19;;;;;;;;;;;20.30;65.70;;;;;;1568693;75;734;-75
2022/12/23 03:05:24;;;;;;;;;;;20.30;65.70;;;;;;1569499;75;1666;-75
2022/12/23 03:07:28;;;;;;;;;;;20.30;65.70;;;;;;1564791;75;1790;-75
2022/12/23 03:09:31;;;;;;;;;;;20.20;65.60;;;;;;1570151;75;1745;-73
2022/12/23 03:11:38;;;;;;;;;;;20.30;65.70;;;;;;1572306;75;804;-73
2022/12/23 03:13:49;;;;;;;;;;;20.30;65.70;;;;;;1573913;75;1095;-73
2022/12/23 03:15:52;;;;;;;;;;;20.20;65.70;;;;;;1572772;75;1103;-73
2022/12/23 03:18:04;;;;;;;;;;;20.30;65.80;;;;;;1570423;75;1151;-74
2022/12/23 03:20:20;;;;;;;;;;;20.30;65.80;;;;;;1569904;75;1937;-74
2022/12/23 03:22:30;;;;;;;;;;;20.30;65.80;;;;;;1571252;75;1591;-74
2022/12/23 03:24:39;;;;;;;;;;;20.20;65.70;;;;;;1571833;75;679;-77
2022/12/23 03:26:47;;;;;;;;;;;20.30;65.80;;;;;;1566819;75;1651;-74
2022/12/23 03:28:51;;;;;;;;;;;20.30;65.80;;;;;;1574244;75;1989;-73
2022/12/23 03:30:54;;;;;;;;;;;20.30;65.80;;;;;;1573859;75;929;-73
2022/12/23 03:33:03;;;;;;;;;;;20.20;65.70;;;;;;1569351;75;669;-73
2022/12/23 03:35:05;;;;;;;;;;;20.30;65.80;;;;;;1568888;75;1922;-73
2022/12/23 03:37:07;;;;;;;;;;;20.30;65.80;;;;;;1567169;75;1139;-73
2022/12/23 03:39:10;;;;;;;;;;;20.30;65.80;;;;;;1572507;75;1931;-73
2022/12/23 03:41:13;;;;;;;;;;;20.30;65.80;;;;;;1566227;75;698;-73
2022/12/23 03:43:17;;;;;;;;;;;20.20;65.70;;;;;;1572684;75;899;-74
2022/12/23 03:45:20;;;;;;;;;;;20.30;65.80;;;;;;1567405;75;1795;-74
2022/12/23 03:47:24;;;;;;;;;;;20.30;65.80;;;;;;1572555;75;1164;-74
2022/12/23 03:49:27;;;;;;;;;;;20.30;65.80;;;;;;1567054;75;1425;-74
2022/12/23 03:51:31;;;;;;;;;;;20.30;65.90;;;;;;1572663;75;1051;-74
2022/12/23 03:53:34;;;;;;;;;;;20.30;65.80;;;;;;1556240;75;669;-74
2022/12/23 03:55:37;;;;;;;;;;;20.30;65.90;;;;;;1569181;75;1044;-74
2022/12/23 03:57:47;;;;;;;;;;;20.30;65.80;;;;;;1550152;72;3092;-69
2022/12/23 03:59:52;;;;;;;;;;;20.30;65.90;;;;;;1524753;77;1914;-69
2022/12/23 04:02:01;;;;;;;;;;;20.20;65.70;;;;;;1516253;77;756;-69
2022/12/23 04:04:05;;;;;;;;;;;20.20;65.70;;;;;;1543458;76;1545;-70
2022/12/23 04:06:09;;;;;;;;;;;20.20;65.80;;;;;;1535058;76;810;-71
2022/12/23 04:08:12;;;;;;;;;;;20.30;65.90;;;;;;1535164;76;1173;-70
2022/12/23 04:10:13;;;;;;;;;;;20.20;65.80;;;;;;1525277;76;675;-73
2022/12/23 04:12:15;;;;;;;;;;;20.30;65.90;;;;;;1523587;77;685;-70
2022/12/23 04:14:18;;;;;;;;;;;20.30;65.90;;;;;;1536001;76;635;-70
2022/12/23 04:16:19;;;;;;;;;;;20.20;65.90;;;;;;1527481;76;605;-70
2022/12/23 04:18:21;;;;;;;;;;;20.20;66.00;;;;;;1529440;76;1490;-71
2022/12/23 04:20:23;;;;;;;;;;;20.20;66.00;;;;;;1526824;76;1937;-70
2022/12/23 04:22:25;;;;;;;;;;;20.20;66.10;;;;;;1537096;76;688;-72
2022/12/23 04:24:27;;;;;;;;;;;20.20;66.10;;;;;;1536742;76;676;-71
2022/12/23 04:26:29;;;;;;;;;;;20.20;66.10;;;;;;1537104;76;669;-69
2022/12/23 04:28:31;;;;;;;;;;;20.20;66.10;;;;;;1536483;76;1145;-73
2022/12/23 04:30:33;;;;;;;;;;;20.20;66.10;;;;;;1535918;76;640;-70
2022/12/23 04:32:35;;;;;;;;;;;20.20;66.10;;;;;;1536513;76;1524;-73
2022/12/23 04:34:36;;;;;;;;;;;20.20;66.10;;;;;;1538209;76;675;-72
2022/12/23 04:36:38;;;;;;;;;;;20.20;66.20;;;;;;1533389;76;633;-71
2022/12/23 04:38:40;;;;;;;;;;;20.20;66.20;;;;;;1536388;76;1350;-70
2022/12/23 04:40:44;;;;;;;;;;;20.20;66.20;;;;;;1527810;76;1939;-72
2022/12/23 04:42:46;;;;;;;;;;;20.20;66.20;;;;;;1535012;76;1190;-70
2022/12/23 04:44:47;;;;;;;;;;;20.20;66.30;;;;;;1536318;76;617;-71
2022/12/23 04:46:49;;;;;;;;;;;20.20;66.20;;;;;;1536009;76;1644;-70
2022/12/23 04:48:51;;;;;;;;;;;20.20;66.20;;;;;;1542059;76;626;-68
2022/12/23 04:50:53;;;;;;;;;;;20.20;66.20;;;;;;1533177;76;637;-69
2022/12/23 04:52:55;;;;;;;;;;;20.20;66.30;;;;;;1532171;76;670;-72
2022/12/23 04:54:57;;;;;;;;;;;20.10;66.30;;;;;;1536202;76;677;-72
2022/12/23 04:56:59;;;;;;;;;;;20.20;66.30;;;;;;1536675;76;1148;-70
2022/12/23 04:59:01;;;;;;;;;;;20.20;66.30;;;;;;1536202;76;783;-70
2022/12/23 05:01:03;;;;;;;;;;;20.10;66.30;;;;;;1536517;76;1901;-68
2022/12/23 05:03:05;;;;;;;;;;;20.20;66.30;;;;;;1540831;76;687;-69
2022/12/23 05:05:07;;;;;;;;;;;20.20;66.30;;;;;;1536341;76;692;-68
2022/12/23 05:07:09;;;;;;;;;;;20.20;66.30;;;;;;1525736;76;1131;-68
2022/12/23 05:09:11;;;;;;;;;;;20.10;66.20;;;;;;1536342;76;695;-68
2022/12/23 05:11:12;;;;;;;;;;;20.20;66.20;;;;;;1535095;76;700;-69
2022/12/23 05:13:14;;;;;;;;;;;20.20;66.20;;;;;;1534916;76;662;-70
2022/12/23 05:15:16;;;;;;;;;;;20.20;66.20;;;;;;1535219;76;1624;-67
2022/12/23 05:17:18;;;;;;;;;;;20.20;66.20;;;;;;1536466;76;1098;-66
2022/12/23 05:19:20;;;;;;;;;;;20.20;66.30;;;;;;1535126;76;1936;-69
2022/12/23 05:21:22;;;;;;;;;;;20.20;66.30;;;;;;1535435;76;698;-68
2022/12/23 05:23:24;;;;;;;;;;;20.20;66.30;;;;;;1536888;76;724;-69
2022/12/23 05:25:26;;;;;;;;;;;20.20;66.30;;;;;;1535767;76;571;-70
2022/12/23 05:27:27;;;;;;;;;;;20.20;66.40;;;;;;1526750;76;1160;-70
2022/12/23 05:29:29;;;;;;;;;;;20.20;66.40;;;;;;1533769;76;652;-71
2022/12/23 05:31:31;;;;;;;;;;;20.20;66.40;;;;;;1538731;76;743;-68
2022/12/23 05:33:33;;;;;;;;;;;20.10;66.50;;;;;;1533402;76;785;-68
2022/12/23 05:35:35;;;;;;;;;;;20.20;66.40;;;;;;1529679;76;704;-69
2022/12/23 05:37:37;;;;;;;;;;;20.10;66.40;;;;;;1526049;76;1186;-70
2022/12/23 05:39:39;;;;;;;;;;;20.20;66.50;;;;;;1537879;76;1932;-70
2022/12/23 05:41:41;;;;;;;;;;;20.10;66.50;;;;;;1533449;77;684;-70
2022/12/23 05:43:42;;;;;;;;;;;20.20;66.60;;;;;;1535467;76;1058;-72
2022/12/23 05:45:44;;;;;;;;;;;20.20;66.70;;;;;;1541065;76;658;-70
2022/12/23 05:47:46;;;;;;;;;;;20.10;68.20;;;;;;1537114;76;1183;-70
2022/12/23 05:49:48;;;;;;;;;;;20.20;68.60;;;;;;1530223;76;689;-68
2022/12/23 05:51:50;;;;;;;;;;;20.20;68.10;;;;;;1533269;76;674;-72
2022/12/23 05:53:52;;;;;;;;;;;20.30;67.80;;;;;;1535979;76;664;-71
2022/12/23 05:55:54;;;;;;;;;;;20.40;67.60;;;;;;1535557;76;651;-73
2022/12/23 05:57:55;;;;;;;;;;;20.40;67.40;;;;;;1529781;76;1129;-73
2022/12/23 05:59:58;;;;;;;;;;;20.40;67.20;;;;;;1526849;76;1959;-70
2022/12/23 06:02:00;;;;;;;;;;;20.30;67.30;;;;;;1535601;76;679;-70
2022/12/23 06:04:01;;;;;;;;;;;20.40;67.30;;;;;;1535793;76;696;-72
2022/12/23 06:06:03;;;;;;;;;;;20.30;67.30;;;;;;1531761;76;666;-70
2022/12/23 06:08:05;;;;;;;;;;;20.30;67.50;;;;;;1535185;76;1142;-69
2022/12/23 06:10:07;;;;;;;;;;;20.30;67.50;;;;;;1535814;76;680;-70
2022/12/23 06:12:09;;;;;;;;;;;20.40;67.10;;;;;;1526539;76;730;-72
2022/12/23 06:14:11;;;;;;;;;;;20.40;67.20;;;;;;1538647;76;613;-72
2022/12/23 06:16:13;;;;;;;;;;;20.40;67.20;;;;;;1547810;76;677;-73
2022/12/23 06:18:15;;;;;;;;;;;20.40;66.90;;;;;;1535485;76;1113;-71
2022/12/23 06:20:17;;;;;;;;;;;20.40;66.80;;;;;;1537179;76;1925;-73
2022/12/23 06:22:24;;;;;;;;;;;20.40;66.80;;;;;;1533280;77;766;-70
2022/12/23 06:24:22;;;;;;;;;;;20.30;66.80;;;;;;1531053;76;1078;-74
2022/12/23 06:26:25;;;;;;;;;;;20.30;66.90;;;;;;1537645;76;595;-73
2022/12/23 06:28:28;;;;;;;;;;;20.30;66.80;;;;;;1532740;76;1466;-70
2022/12/23 06:30:30;;;;;;;;;;;20.30;66.90;;;;;;1533034;76;734;-75
2022/12/23 06:32:31;;;;;;;;;;;20.30;66.90;;;;;;1532036;76;534;-75
2022/12/23 06:34:33;;;;;;;;;;;20.40;67.20;;;;;;1531822;76;663;-73
2022/12/23 06:36:35;;;;;;;;;;;20.40;67.00;;;;;;1536579;76;699;-71
2022/12/23 06:38:37;;;;;;;;;;;20.40;66.90;;;;;;1536731;76;1133;-71
2022/12/23 06:40:39;;;;;;;;;;;20.30;67.10;;;;;;1535062;76;1921;-72
2022/12/23 06:42:41;;;;;;;;;;;20.40;67.30;;;;;;1534928;76;682;-74
2022/12/23 06:44:43;;;;;;;;;;;20.40;67.10;;;;;;1529542;76;530;-73
2022/12/23 06:46:44;;;;;;;;;;;20.40;67.00;;;;;;1536382;76;1148;-74
2022/12/23 06:48:46;;;;;;;;;;;20.40;66.90;;;;;;1535839;76;654;-73
2022/12/23 06:50:48;;;;;;;;;;;20.40;66.90;;;;;;1535203;76;753;-74
2022/12/23 06:52:50;;;;;;;;;;;20.40;66.90;;;;;;1532548;76;706;-74
2022/12/23 06:54:52;;;;;;;;;;;20.30;66.90;;;;;;1527857;76;678;-76
2022/12/23 06:56:54;;;;;;;;;;;20.40;66.80;;;;;;1535408;76;1157;-73
2022/12/23 06:58:56;;;;;;;;;;;20.40;66.50;;;;;;1535295;76;797;-74
2022/12/23 07:00:58;;;;;;;;;;;20.30;66.40;;;;;;1539740;76;1942;-73
2022/12/23 07:03:00;;;;;;;;;;;20.30;66.40;;;;;;1532962;76;693;-73
2022/12/23 07:05:01;;;;;;;;;;;20.30;66.30;;;;;;1534948;76;711;-73
2022/12/23 07:07:03;;;;;;;;;;;20.40;66.30;;;;;;1533306;76;1154;-73
2022/12/23 07:09:06;;;;;;;;;;;20.40;66.20;;;;;;1532273;76;650;-75
2022/12/23 07:11:08;;;;;;;;;;;20.40;66.10;;;;;;1532086;76;619;-73
2022/12/23 07:13:10;;;;;;;;;;;20.40;66.20;;;;;;1528864;77;664;-72
2022/12/23 07:15:11;;;;;;;;;;;20.30;66.10;;;;;;1539711;76;663;-73
2022/12/23 07:17:13;;;;;;;;;;;20.40;66.10;;;;;;1536053;76;1157;-73
2022/12/23 07:19:15;;;;;;;;;;;20.40;66.10;;;;;;1534408;76;587;-73
2022/12/23 07:21:17;;;;;;;;;;;20.30;66.10;;;;;;1535665;76;1937;-72
2022/12/23 07:23:19;;;;;;;;;;;20.40;66.10;;;;;;1536532;76;627;-72
2022/12/23 07:25:21;;;;;;;;;;;20.30;66.00;;;;;;1535976;76;1492;-75
2022/12/23 07:27:23;;;;;;;;;;;20.40;66.00;;;;;;1528882;76;1133;-73
2022/12/23 07:29:24;;;;;;;;;;;20.30;66.00;;;;;;1531286;76;695;-72
2022/12/23 07:31:27;;;;;;;;;;;20.40;66.00;;;;;;1522316;76;602;-74
2022/12/23 07:33:29;;;;;;;;;;;20.40;65.90;;;;;;1526825;76;760;-75
2022/12/23 07:35:30;;;;;;;;;;;20.40;65.90;;;;;;1530173;76;665;-73
2022/12/23 07:37:32;;;;;;;;;;;20.40;66.00;;;;;;1536435;76;1155;-73
2022/12/23 07:39:35;;;;;;;;;;;20.30;66.00;;;;;;1535442;76;665;-72
2022/12/23 07:41:37;;;;;;;;;;;20.40;66.00;;;;;;1535177;76;1924;-70
2022/12/23 07:43:39;;;;;;;;;;;20.40;65.80;;;;;;1535082;76;591;-74
2022/12/23 07:45:41;;;;;;;;;;;20.40;65.70;;;;;;1537598;76;641;-72
2022/12/23 07:47:42;;;;;;;;;;;20.40;65.70;;;;;;1535119;76;1118;-73
2022/12/23 07:49:44;;;;;;;;;;;20.40;65.70;;;;;;1535444;76;672;-73
2022/12/23 07:51:46;;;;;;;;;;;20.40;65.60;;;;;;1536781;76;668;-75
2022/12/23 07:53:49;;;;;;;;;;;20.40;65.70;;;;;;1523238;76;661;-74
2022/12/23 07:55:52;;;;;;;;;;;20.40;65.70;;;;;;1522365;76;680;-74
2022/12/23 07:57:53;;;;;;;;;;;20.40;65.80;;;;;;1536317;76;1098;-73
2022/12/23 07:59:55;;;;;;;;;;;20.40;65.80;;;;;;1538972;76;795;-74
2022/12/23 08:01:57;;;;;;;;;;;20.40;65.80;;;;;;1536810;76;1940;-73
2022/12/23 08:03:59;;;;;;;;;;;20.40;65.70;;;;;;1535802;76;664;-73
2022/12/23 08:06:02;;;;;;;;;;;20.30;65.70;;;;;;1537757;76;656;-73
2022/12/23 08:08:04;;;;;;;;;;;20.30;65.70;;;;;;1537410;76;1178;-73
2022/12/23 08:10:06;;;;;;;;;;;20.30;65.70;;;;;;1522046;76;658;-74
2022/12/23 08:12:08;;;;;;;;;;;20.30;65.70;;;;;;1534465;76;681;-73
2022/12/23 08:14:09;;;;;;;;;;;20.30;65.70;;;;;;1530599;76;635;-74
2022/12/23 08:16:11;;;;;;;;;;;20.30;65.70;;;;;;1530810;76;658;-70
2022/12/23 08:18:13;;;;;;;;;;;20.30;65.70;;;;;;1531691;76;1211;-71
2022/12/23 08:20:15;;;;;;;;;;;20.30;65.80;;;;;;1534340;76;1478;-74
2022/12/23 08:22:17;;;;;;;;;;;20.30;65.90;;;;;;1535533;76;1999;-70
2022/12/23 08:24:19;;;;;;;;;;;20.30;66.00;;;;;;1529176;76;670;-71
2022/12/23 08:26:21;;;;;;;;;;;20.30;65.90;;;;;;1536036;76;678;-72
2022/12/23 08:28:23;;;;;;;;;;;20.30;65.90;;;;;;1537026;76;1047;-70
2022/12/23 08:30:25;;;;;;;;;;;20.30;65.90;;;;;;1532125;76;681;-70
2022/12/23 08:32:27;;;;;;;;;;;20.20;65.80;;;;;;1533964;76;749;-70
2022/12/23 08:34:29;;;;;;;;;;;20.20;65.80;;;;;;1534588;76;651;-71
2022/12/23 08:36:31;;;;;;;;;;;20.30;65.90;;;;;;1536212;76;662;-72
2022/12/23 08:38:33;;;;;;;;;;;20.30;65.90;;;;;;1533658;76;1122;-71
2022/12/23 08:40:35;;;;;;;;;;;20.30;66.00;;;;;;1536388;76;1918;-72
2022/12/23 08:42:37;;;;;;;;;;;20.20;65.80;;;;;;1535165;76;623;-71
2022/12/23 08:44:39;;;;;;;;;;;20.30;65.90;;;;;;1538526;76;676;-72
2022/12/23 08:46:41;;;;;;;;;;;20.30;66.00;;;;;;1534323;76;690;-72
2022/12/23 08:48:42;;;;;;;;;;;20.20;65.90;;;;;;1534799;76;679;-72
2022/12/23 08:50:45;;;;;;;;;;;20.20;65.80;;;;;;1535596;76;643;-72
2022/12/23 08:52:46;;;;;;;;;;;20.20;65.80;;;;;;1536849;76;685;-74
2022/12/23 08:54:48;;;;;;;;;;;20.30;65.90;;;;;;1524597;76;639;-72
2022/12/23 08:56:50;;;;;;;;;;;20.20;65.80;;;;;;1523155;76;1114;-72
2022/12/23 08:58:52;;;;;;;;;;;20.30;65.90;;;;;;1528305;76;667;-74
2022/12/23 09:00:54;;;;;;;;;;;20.20;65.80;;;;;;1538412;76;1926;-74
2022/12/23 09:02:56;;;;;;;;;;;20.20;65.90;;;;;;1534873;76;635;-72
2022/12/23 09:04:58;;;;;;;;;;;20.20;65.80;;;;;;1533741;76;611;-72
2022/12/23 09:07:00;;;;;;;;;;;20.20;65.90;;;;;;1531499;76;1169;-74
2022/12/23 09:09:02;;;;;;;;;;;20.20;65.80;;;;;;1536208;76;607;-72
2022/12/23 09:11:04;;;;;;;;;;;20.20;65.90;;;;;;1534385;76;623;-70
2022/12/23 09:13:06;;;;;;;;;;;20.20;65.90;;;;;;1534333;76;680;-72
2022/12/23 09:15:08;;;;;;;;;;;20.20;65.90;;;;;;1528550;76;590;-72
2022/12/23 09:17:10;;;;;;;;;;;20.20;65.90;;;;;;1537270;76;1444;-73
2022/12/23 09:19:12;;;;;;;;;;;20.20;65.90;;;;;;1535232;76;641;-72
2022/12/23 09:21:15;;;;;;;;;;;20.20;65.90;;;;;;1537652;77;1922;-72
2022/12/23 09:23:16;;;;;;;;;;;20.20;65.90;;;;;;1537696;76;664;-71
2022/12/23 09:25:18;;;;;;;;;;;20.20;65.90;;;;;;1537498;77;654;-72
2022/12/23 09:27:20;;;;;;;;;;;20.20;65.90;;;;;;1537330;76;1130;-73
2022/12/23 09:29:22;;;;;;;;;;;20.20;65.80;;;;;;1537564;76;634;-71
2022/12/23 09:31:24;;;;;;;;;;;20.20;65.80;;;;;;1536461;76;633;-71
2022/12/23 09:33:26;;;;;;;;;;;20.20;65.70;;;;;;1538138;76;765;-71
2022/12/23 09:35:28;;;;;;;;;;;20.20;65.60;;;;;;1531181;76;660;-71
2022/12/23 09:37:30;;;;;;;;;;;20.30;65.60;;;;;;1530238;76;1156;-69
2022/12/23 09:39:31;;;;;;;;;;;20.20;65.40;;;;;;1533179;76;648;-73
2022/12/23 09:41:38;;;;;;;;;;;20.30;65.60;;;;;;1534806;76;1940;-73
2022/12/23 09:43:44;;;;;;;;;;;20.20;65.40;;;;;;1534849;76;610;-72
2022/12/23 09:46:05;;;;;;;;;;;20.20;65.40;;;;;;1537924;76;700;-71
2022/12/23 09:48:08;;;;;;;;;;;20.20;65.40;;;;;;1537196;76;1083;-72
2022/12/23 09:50:12;;;;;;;;;;;20.20;65.40;;;;;;1535638;76;671;-74
2022/12/23 09:52:15;;;;;;;;;;;20.20;65.40;;;;;;1533862;76;1032;-75
2022/12/23 09:54:18;;;;;;;;;;;20.20;65.50;;;;;;1534387;76;712;-69
2022/12/23 09:56:28;;;;;;;;;;;20.20;65.40;;;;;;1533961;76;618;-72
2022/12/23 09:58:31;;;;;;;;;;;20.20;65.40;;;;;;1532095;73;2116;-77
2022/12/23 10:00:40;;;;;;;;;;;20.40;65.60;;;;;;1529273;77;1109;-74
2022/12/23 10:03:00;;;;;;;;;;;20.20;65.40;;;;;;1524216;77;1970;-73
2022/12/23 10:05:06;;;;;;;;;;;20.20;65.40;;;;;;1524205;77;696;-74
2022/12/23 10:07:19;;;;;;;;;;;20.20;65.50;;;;;;1526563;76;1230;-74
2022/12/23 10:09:21;;;;;;;;;;;20.20;65.50;;;;;;1551788;76;774;-73
2022/12/23 10:11:33;;;;;;;;;;;20.20;65.40;;;;;;1550084;76;823;-74
2022/12/23 10:13:37;;;;;;;;;;;20.10;65.40;;;;;;1554047;75;1550;-74
2022/12/23 10:15:41;;;;;;;;;;;20.20;65.40;;;;;;1550579;76;1090;-73
2022/12/23 10:17:43;;;;;;;;;;;20.20;65.40;;;;;;1552993;76;1159;-74
2022/12/23 10:19:45;;;;;;;;;;;20.20;65.50;;;;;;1553157;76;712;-74
2022/12/23 10:21:51;;;;;;;;;;;20.10;65.40;;;;;;1544395;75;1931;-73
2022/12/23 10:23:53;;;;;;;;;;;20.20;65.40;;;;;;1554389;76;703;-71
2022/12/23 10:25:55;;;;;;;;;;;20.20;65.40;;;;;;1551816;76;765;-72
2022/12/23 10:27:57;;;;;;;;;;;20.20;65.40;;;;;;1537115;75;1149;-73
2022/12/23 10:30:10;;;;;;;;;;;20.20;65.40;;;;;;1556462;76;679;-74
2022/12/23 10:32:16;;;;;;;;;;;20.10;65.40;;;;;;1555970;76;1742;-74
2022/12/23 10:34:22;;;;;;;;;;;20.20;65.40;;;;;;1557539;76;1951;-72
2022/12/23 10:36:37;;;;;;;;;;;20.20;65.40;;;;;;1556549;76;684;-74
2022/12/23 10:38:41;;;;;;;;;;;20.20;65.40;;;;;;1547388;76;1760;-77
2022/12/23 10:40:53;;;;;;;;;;;20.20;65.50;;;;;;1545132;76;732;-74
2022/12/23 10:43:03;;;;;;;;;;;20.20;65.60;;;;;;1555057;75;1924;-75
2022/12/23 10:45:23;;;;;;;;;;;20.20;65.60;;;;;;1555496;76;692;-76
2022/12/23 10:47:43;;;;;;;;;;;20.20;65.70;;;;;;1555239;76;1156;-75
2022/12/23 10:49:53;;;;;;;;;;;20.20;65.80;;;;;;1548911;76;741;-74
2022/12/23 10:51:56;;;;;;;;;;;20.20;65.90;;;;;;1543154;76;679;-74
2022/12/23 10:54:00;;;;;;;;;;;20.20;65.70;;;;;;1548206;76;1017;-74
2022/12/23 10:56:02;;;;;;;;;;;20.20;65.60;;;;;;1542041;75;1142;-74
2022/12/23 10:58:08;;;;;;;;;;;20.20;65.70;;;;;;1550887;76;1141;-75
2022/12/23 11:00:12;;;;;;;;;;;20.20;65.60;;;;;;1547633;76;1101;-75
2022/12/23 11:02:15;;;;;;;;;;;20.20;65.60;;;;;;1545168;76;1952;-75
2022/12/23 11:04:17;;;;;;;;;;;20.20;65.60;;;;;;1547486;76;739;-75
2022/12/23 11:06:19;;;;;;;;;;;20.20;65.60;;;;;;1542857;76;826;-74
2022/12/23 11:08:21;;;;;;;;;;;20.20;65.70;;;;;;1546943;76;1114;-75
2022/12/23 11:10:27;;;;;;;;;;;20.20;65.80;;;;;;1550853;76;1345;-75
2022/12/23 11:12:39;;;;;;;;;;;20.20;65.20;;;;;;1550238;75;658;-76
2022/12/23 11:14:42;;;;;;;;;;;20.20;65.00;;;;;;1546593;76;1533;-73
2022/12/23 11:16:46;;;;;;;;;;;20.20;65.20;;;;;;1544255;76;822;-75
2022/12/23 11:18:53;;;;;;;;;;;20.20;65.40;;;;;;1548555;75;1279;-75
2022/12/23 11:21:02;;;;;;;;;;;20.20;65.40;;;;;;1544307;75;1075;-73
2022/12/23 11:23:04;;;;;;;;;;;20.30;65.70;;;;;;1554607;76;1926;-74
2022/12/23 11:25:26;;;;;;;;;;;20.30;65.70;;;;;;1541868;75;684;-74
2022/12/23 11:27:28;;;;;;;;;;;20.20;65.60;;;;;;1542810;76;1132;-75
2022/12/23 11:29:34;;;;;;;;;;;20.20;65.70;;;;;;1554870;76;675;-75
2022/12/23 11:31:36;;;;;;;;;;;20.20;65.70;;;;;;1551477;76;764;-72
2022/12/23 11:33:39;;;;;;;;;;;20.20;65.70;;;;;;1548254;76;682;-75
2022/12/23 11:35:41;;;;;;;;;;;20.20;65.80;;;;;;1552669;75;943;-74
2022/12/23 11:37:43;;;;;;;;;;;20.20;65.80;;;;;;1548681;75;1233;-75
2022/12/23 11:39:45;;;;;;;;;;;20.20;65.90;;;;;;1550563;76;766;-74
2022/12/23 11:41:47;;;;;;;;;;;20.20;65.90;;;;;;1544283;75;1954;-75
2022/12/23 11:43:50;;;;;;;;;;;20.20;66.00;;;;;;1554353;75;651;-74
2022/12/23 11:46:10;;;;;;;;;;;20.20;65.90;;;;;;1524002;76;1884;-73
2022/12/23 11:48:14;;;;;;;;;;;20.20;65.80;;;;;;1520709;76;1160;-73
2022/12/23 11:50:20;;;;;;;;;;;20.20;65.90;;;;;;1518154;76;1261;-73
2022/12/23 11:52:23;;;;;;;;;;;20.20;65.90;;;;;;1536789;76;786;-73
2022/12/23 11:54:24;;;;;;;;;;;20.20;65.90;;;;;;1546726;75;731;-74
2022/12/23 11:56:26;;;;;;;;;;;20.20;65.90;;;;;;1548053;76;742;-74
2022/12/23 11:58:28;;;;;;;;;;;20.20;65.90;;;;;;1551186;75;1134;-74
2022/12/23 12:00:38;;;;;;;;;;;20.20;65.90;;;;;;1546774;75;647;-74
2022/12/23 12:02:40;;;;;;;;;;;20.20;65.80;;;;;;1557695;74;1932;-74
2022/12/23 12:04:42;;;;;;;;;;;20.20;65.80;;;;;;1524635;77;764;-75
2022/12/23 12:06:44;;;;;;;;;;;20.20;65.80;;;;;;1528166;76;1551;-74
2022/12/23 12:08:47;;;;;;;;;;;20.20;65.80;;;;;;1554704;75;1125;-72
2022/12/23 12:10:50;;;;;;;;;;;20.20;65.70;;;;;;1555714;75;761;-74
2022/12/23 12:12:54;;;;;;;;;;;20.30;65.80;;;;;;1553757;75;623;-73
2022/12/23 12:14:59;;;;;;;;;;;20.30;65.70;;;;;;1546118;75;994;-72
2022/12/23 12:17:08;;;;;;;;;;;20.30;65.60;;;;;;1532228;76;642;-73
2022/12/23 12:19:12;;;;;;;;;;;20.30;65.50;;;;;;1543881;76;720;-74
2022/12/23 12:21:14;;;;;;;;;;;20.30;65.40;;;;;;1542307;76;1901;-74
2022/12/23 12:23:24;;;;;;;;;;;20.30;65.30;;;;;;1534223;76;1943;-74
2022/12/23 12:25:27;;;;;;;;;;;20.40;65.20;;;;;;1523764;77;1539;-74
2022/12/23 12:27:31;;;;;;;;;;;20.40;65.20;;;;;;1529602;76;1148;-74
2022/12/23 12:29:37;;;;;;;;;;;20.30;65.10;;;;;;1537458;75;1174;-73
2022/12/23 12:31:48;;;;;;;;;;;20.30;65.10;;;;;;1530926;76;724;-74
2022/12/23 12:33:55;;;;;;;;;;;20.40;65.00;;;;;;1532366;76;684;-74
2022/12/23 12:35:59;;;;;;;;;;;20.40;65.00;;;;;;1530788;76;1120;-73
2022/12/23 12:38:02;;;;;;;;;;;20.40;65.00;;;;;;1536163;75;1165;-73
2022/12/23 12:40:08;;;;;;;;;;;20.40;65.00;;;;;;1554778;75;2026;-74
2022/12/23 12:42:14;;;;;;;;;;;20.40;64.90;;;;;;1549323;76;1908;-74